sensor_id;sensor_type;location;lat;lon;timestamp;P1;durP1;ratioP1;P2;durP2;ratioP2
5297;SDS011;14738;42.668;23.250;2024-01-10T00:01:27;4.37;;;3.97;;
5297;SDS011;14738;42.668;23.250;2024-01-10T00:03:53;4.37;;;3.97;;
5297;SDS011;14738;42.668;23.250;2024-01-10T00:06:19;4.23;;;3.83;;
5297;SDS011;14738;42.668;23.250;2024-01-10T00:08:45;4.70;;;4.30;;
5297;SDS011;14738;42.668;23.250;2024-01-10T00:11:10;5.10;;;4.60;;
5297;SDS011;14738;42.668;23.250;2024-01-10T00:13:36;5.37;;;3.40;;
5297;SDS011;14738;42.668;23.250;2024-01-10T00:16:01;4.00;;;3.23;;
5297;SDS011;14738;42.668;23.250;2024-01-10T00:18:27;4.23;;;3.83;;
5297;SDS011;14738;42.668;23.250;2024-01-10T00:24:13;2.83;;;2.73;;
5297;SDS011;14738;42.668;23.250;2024-01-10T00:26:39;3.27;;;2.97;;
5297;SDS011;14738;42.668;23.250;2024-01-10T00:29:04;3.40;;;3.17;;
5297;SDS011;14738;42.668;23.250;2024-01-10T00:31:30;3.80;;;3.40;;
5297;SDS011;14738;42.668;23.250;2024-01-10T00:33:55;3.30;;;3.00;;
5297;SDS011;14738;42.668;23.250;2024-01-10T00:36:20;3.53;;;3.20;;
5297;SDS011;14738;42.668;23.250;2024-01-10T00:38:46;3.07;;;2.70;;
5297;SDS011;14738;42.668;23.250;2024-01-10T00:41:11;4.40;;;3.97;;
5297;SDS011;14738;42.668;23.250;2024-01-10T00:43:37;4.17;;;3.77;;
5297;SDS011;14738;42.668;23.250;2024-01-10T00:46:03;2.70;;;2.57;;
5297;SDS011;14738;42.668;23.250;2024-01-10T00:48:28;2.90;;;2.80;;
5297;SDS011;14738;42.668;23.250;2024-01-10T00:50:53;3.83;;;3.53;;
5297;SDS011;14738;42.668;23.250;2024-01-10T00:53:19;3.17;;;2.90;;
5297;SDS011;14738;42.668;23.250;2024-01-10T00:55:44;4.07;;;3.77;;
5297;SDS011;14738;42.668;23.250;2024-01-10T00:58:09;3.43;;;3.13;;
5297;SDS011;14738;42.668;23.250;2024-01-10T01:00:35;4.77;;;3.57;;
5297;SDS011;14738;42.668;23.250;2024-01-10T01:03:00;5.10;;;2.97;;
5297;SDS011;14738;42.668;23.250;2024-01-10T01:05:26;3.37;;;3.10;;
5297;SDS011;14738;42.668;23.250;2024-01-10T01:07:51;3.40;;;3.10;;
5297;SDS011;14738;42.668;23.250;2024-01-10T01:10:33;3.60;;;3.30;;
5297;SDS011;14738;42.668;23.250;2024-01-10T01:12:58;3.57;;;3.27;;
5297;SDS011;14738;42.668;23.250;2024-01-10T01:15:24;4.00;;;3.10;;
5297;SDS011;14738;42.668;23.250;2024-01-10T01:17:49;3.83;;;3.50;;
5297;SDS011;14738;42.668;23.250;2024-01-10T01:20:20;7.63;;;3.23;;
5297;SDS011;14738;42.668;23.250;2024-01-10T01:22:46;3.30;;;3.00;;
5297;SDS011;14738;42.668;23.250;2024-01-10T01:25:11;3.40;;;2.77;;
5297;SDS011;14738;42.668;23.250;2024-01-10T01:27:36;3.30;;;3.10;;
5297;SDS011;14738;42.668;23.250;2024-01-10T01:35:57;3.73;;;3.43;;
5297;SDS011;14738;42.668;23.250;2024-01-10T01:38:23;3.20;;;3.00;;
5297;SDS011;14738;42.668;23.250;2024-01-10T01:40:48;4.10;;;3.20;;
5297;SDS011;14738;42.668;23.250;2024-01-10T01:43:21;4.40;;;4.00;;
5297;SDS011;14738;42.668;23.250;2024-01-10T01:45:53;3.63;;;2.93;;
5297;SDS011;14738;42.668;23.250;2024-01-10T01:48:20;3.07;;;2.90;;
5297;SDS011;14738;42.668;23.250;2024-01-10T01:50:47;3.10;;;2.90;;
5297;SDS011;14738;42.668;23.250;2024-01-10T01:53:15;4.07;;;3.77;;
5297;SDS011;14738;42.668;23.250;2024-01-10T01:58:41;4.00;;;3.30;;
5297;SDS011;14738;42.668;23.250;2024-01-10T02:01:09;5.10;;;3.73;;
5297;SDS011;14738;42.668;23.250;2024-01-10T02:03:35;4.10;;;3.73;;
5297;SDS011;14738;42.668;23.250;2024-01-10T02:08:56;3.37;;;3.10;;
5297;SDS011;14738;42.668;23.250;2024-01-10T02:11:22;3.70;;;3.30;;
5297;SDS011;14738;42.668;23.250;2024-01-10T02:13:49;3.40;;;3.10;;
5297;SDS011;14738;42.668;23.250;2024-01-10T02:16:14;2.87;;;2.70;;
5297;SDS011;14738;42.668;23.250;2024-01-10T02:18:40;3.50;;;3.30;;
5297;SDS011;14738;42.668;23.250;2024-01-10T02:24:27;3.97;;;3.20;;
5297;SDS011;14738;42.668;23.250;2024-01-10T02:26:52;3.00;;;2.80;;
5297;SDS011;14738;42.668;23.250;2024-01-10T02:29:18;3.93;;;2.67;;
5297;SDS011;14738;42.668;23.250;2024-01-10T02:31:44;3.33;;;3.03;;
5297;SDS011;14738;42.668;23.250;2024-01-10T02:34:09;6.07;;;3.23;;
5297;SDS011;14738;42.668;23.250;2024-01-10T02:36:35;3.83;;;3.63;;
5297;SDS011;14738;42.668;23.250;2024-01-10T02:39:00;3.43;;;3.23;;
5297;SDS011;14738;42.668;23.250;2024-01-10T02:41:25;3.40;;;3.20;;
5297;SDS011;14738;42.668;23.250;2024-01-10T02:43:52;4.57;;;3.60;;
5297;SDS011;14738;42.668;23.250;2024-01-10T02:46:17;3.90;;;3.27;;
5297;SDS011;14738;42.668;23.250;2024-01-10T02:48:44;5.00;;;3.97;;
5297;SDS011;14738;42.668;23.250;2024-01-10T02:51:09;6.60;;;4.67;;
5297;SDS011;14738;42.668;23.250;2024-01-10T02:53:35;9.67;;;5.40;;
5297;SDS011;14738;42.668;23.250;2024-01-10T02:56:00;4.80;;;4.03;;
5297;SDS011;14738;42.668;23.250;2024-01-10T02:58:26;7.77;;;4.03;;
5297;SDS011;14738;42.668;23.250;2024-01-10T03:00:53;4.07;;;3.67;;
5297;SDS011;14738;42.668;23.250;2024-01-10T03:03:18;3.07;;;2.77;;
5297;SDS011;14738;42.668;23.250;2024-01-10T03:05:44;3.87;;;3.30;;
5297;SDS011;14738;42.668;23.250;2024-01-10T03:08:09;2.67;;;2.47;;
5297;SDS011;14738;42.668;23.250;2024-01-10T03:10:34;2.97;;;2.73;;
5297;SDS011;14738;42.668;23.250;2024-01-10T03:13:00;2.37;;;2.27;;
5297;SDS011;14738;42.668;23.250;2024-01-10T03:15:25;6.83;;;3.37;;
5297;SDS011;14738;42.668;23.250;2024-01-10T03:17:51;4.27;;;2.90;;
5297;SDS011;14738;42.668;23.250;2024-01-10T03:20:25;6.53;;;3.00;;
5297;SDS011;14738;42.668;23.250;2024-01-10T03:22:50;3.03;;;2.80;;
5297;SDS011;14738;42.668;23.250;2024-01-10T03:25:16;2.43;;;2.33;;
5297;SDS011;14738;42.668;23.250;2024-01-10T03:27:41;2.60;;;2.40;;
5297;SDS011;14738;42.668;23.250;2024-01-10T03:30:07;3.23;;;3.00;;
5297;SDS011;14738;42.668;23.250;2024-01-10T03:32:33;3.20;;;2.90;;
5297;SDS011;14738;42.668;23.250;2024-01-10T03:34:59;4.00;;;3.17;;
5297;SDS011;14738;42.668;23.250;2024-01-10T03:37:24;2.60;;;2.40;;
5297;SDS011;14738;42.668;23.250;2024-01-10T03:39:49;2.37;;;2.27;;
5297;SDS011;14738;42.668;23.250;2024-01-10T03:42:15;2.93;;;2.70;;
5297;SDS011;14738;42.668;23.250;2024-01-10T03:44:40;2.23;;;2.13;;
5297;SDS011;14738;42.668;23.250;2024-01-10T03:47:06;2.83;;;2.63;;
5297;SDS011;14738;42.668;23.250;2024-01-10T03:49:31;3.63;;;3.40;;
5297;SDS011;14738;42.668;23.250;2024-01-10T03:51:57;4.37;;;3.70;;
5297;SDS011;14738;42.668;23.250;2024-01-10T03:54:22;4.63;;;3.40;;
5297;SDS011;14738;42.668;23.250;2024-01-10T03:56:47;3.13;;;2.97;;
5297;SDS011;14738;42.668;23.250;2024-01-10T03:59:13;3.07;;;2.90;;
5297;SDS011;14738;42.668;23.250;2024-01-10T04:01:38;3.10;;;2.90;;
5297;SDS011;14738;42.668;23.250;2024-01-10T04:04:04;2.60;;;2.50;;
5297;SDS011;14738;42.668;23.250;2024-01-10T04:06:30;2.27;;;2.17;;
5297;SDS011;14738;42.668;23.250;2024-01-10T04:08:55;4.83;;;2.60;;
5297;SDS011;14738;42.668;23.250;2024-01-10T04:11:20;3.47;;;2.70;;
5297;SDS011;14738;42.668;23.250;2024-01-10T04:13:46;2.73;;;2.53;;
5297;SDS011;14738;42.668;23.250;2024-01-10T04:16:11;3.77;;;3.00;;
5297;SDS011;14738;42.668;23.250;2024-01-10T04:18:38;4.20;;;2.43;;
5297;SDS011;14738;42.668;23.250;2024-01-10T04:21:03;2.70;;;2.50;;
5297;SDS011;14738;42.668;23.250;2024-01-10T04:23:29;4.53;;;3.67;;
5297;SDS011;14738;42.668;23.250;2024-01-10T04:25:56;3.27;;;2.97;;
5297;SDS011;14738;42.668;23.250;2024-01-10T04:28:22;2.57;;;2.47;;
5297;SDS011;14738;42.668;23.250;2024-01-10T04:30:47;3.13;;;2.90;;
5297;SDS011;14738;42.668;23.250;2024-01-10T04:33:12;2.13;;;2.00;;
5297;SDS011;14738;42.668;23.250;2024-01-10T04:38:24;2.87;;;2.70;;
5297;SDS011;14738;42.668;23.250;2024-01-10T04:40:51;3.07;;;2.87;;
5297;SDS011;14738;42.668;23.250;2024-01-10T04:43:17;2.67;;;2.40;;
5297;SDS011;14738;42.668;23.250;2024-01-10T04:45:42;4.27;;;3.47;;
5297;SDS011;14738;42.668;23.250;2024-01-10T04:48:07;2.67;;;2.47;;
5297;SDS011;14738;42.668;23.250;2024-01-10T04:50:34;3.30;;;2.50;;
5297;SDS011;14738;42.668;23.250;2024-01-10T04:53:00;4.57;;;3.10;;
5297;SDS011;14738;42.668;23.250;2024-01-10T04:55:25;3.33;;;3.07;;
5297;SDS011;14738;42.668;23.250;2024-01-10T04:57:50;3.20;;;2.90;;
5297;SDS011;14738;42.668;23.250;2024-01-10T05:00:16;2.87;;;2.67;;
5297;SDS011;14738;42.668;23.250;2024-01-10T05:02:41;3.13;;;2.93;;
5297;SDS011;14738;42.668;23.250;2024-01-10T05:05:09;3.77;;;3.47;;
5297;SDS011;14738;42.668;23.250;2024-01-10T05:07:34;5.20;;;3.97;;
5297;SDS011;14738;42.668;23.250;2024-01-10T05:10:00;6.50;;;4.67;;
5297;SDS011;14738;42.668;23.250;2024-01-10T05:12:25;5.37;;;4.03;;
5297;SDS011;14738;42.668;23.250;2024-01-10T05:14:50;2.77;;;2.60;;
5297;SDS011;14738;42.668;23.250;2024-01-10T05:17:17;3.47;;;3.17;;
5297;SDS011;14738;42.668;23.250;2024-01-10T05:19:42;3.73;;;3.43;;
5297;SDS011;14738;42.668;23.250;2024-01-10T05:22:08;2.80;;;2.60;;
5297;SDS011;14738;42.668;23.250;2024-01-10T05:24:33;2.67;;;2.43;;
5297;SDS011;14738;42.668;23.250;2024-01-10T05:27:00;4.33;;;3.57;;
5297;SDS011;14738;42.668;23.250;2024-01-10T05:29:26;7.20;;;6.20;;
5297;SDS011;14738;42.668;23.250;2024-01-10T05:31:53;8.47;;;5.67;;
5297;SDS011;14738;42.668;23.250;2024-01-10T05:34:18;12.50;;;6.63;;
5297;SDS011;14738;42.668;23.250;2024-01-10T05:36:44;11.50;;;7.33;;
5297;SDS011;14738;42.668;23.250;2024-01-10T05:39:09;7.00;;;6.30;;
5297;SDS011;14738;42.668;23.250;2024-01-10T05:41:34;6.33;;;5.43;;
5297;SDS011;14738;42.668;23.250;2024-01-10T05:44:00;8.17;;;4.60;;
5297;SDS011;14738;42.668;23.250;2024-01-10T05:46:25;4.93;;;4.53;;
5297;SDS011;14738;42.668;23.250;2024-01-10T05:48:53;5.50;;;4.07;;
5297;SDS011;14738;42.668;23.250;2024-01-10T05:51:18;4.10;;;3.80;;
5297;SDS011;14738;42.668;23.250;2024-01-10T05:53:43;5.30;;;4.40;;
5297;SDS011;14738;42.668;23.250;2024-01-10T05:56:09;5.90;;;4.80;;
5297;SDS011;14738;42.668;23.250;2024-01-10T05:58:34;4.80;;;4.20;;
5297;SDS011;14738;42.668;23.250;2024-01-10T06:01:00;6.30;;;4.60;;
5297;SDS011;14738;42.668;23.250;2024-01-10T06:03:26;5.70;;;4.30;;
5297;SDS011;14738;42.668;23.250;2024-01-10T06:05:51;4.00;;;3.70;;
5297;SDS011;14738;42.668;23.250;2024-01-10T06:08:16;4.10;;;3.63;;
5297;SDS011;14738;42.668;23.250;2024-01-10T06:10:42;6.73;;;4.70;;
5297;SDS011;14738;42.668;23.250;2024-01-10T06:13:07;7.30;;;4.53;;
5297;SDS011;14738;42.668;23.250;2024-01-10T06:15:33;11.30;;;4.60;;
5297;SDS011;14738;42.668;23.250;2024-01-10T06:17:58;6.33;;;4.83;;
5297;SDS011;14738;42.668;23.250;2024-01-10T06:20:24;9.40;;;5.00;;
5297;SDS011;14738;42.668;23.250;2024-01-10T06:22:49;13.40;;;6.10;;
5297;SDS011;14738;42.668;23.250;2024-01-10T06:25:14;7.40;;;5.27;;
5297;SDS011;14738;42.668;23.250;2024-01-10T06:27:40;4.97;;;4.47;;
5297;SDS011;14738;42.668;23.250;2024-01-10T06:30:06;6.80;;;5.27;;
5297;SDS011;14738;42.668;23.250;2024-01-10T06:32:32;6.30;;;4.80;;
5297;SDS011;14738;42.668;23.250;2024-01-10T06:34:58;4.83;;;4.20;;
5297;SDS011;14738;42.668;23.250;2024-01-10T06:37:25;4.77;;;4.20;;
5297;SDS011;14738;42.668;23.250;2024-01-10T06:39:50;7.03;;;4.83;;
5297;SDS011;14738;42.668;23.250;2024-01-10T06:42:16;5.63;;;3.43;;
5297;SDS011;14738;42.668;23.250;2024-01-10T06:44:41;4.07;;;3.70;;
5297;SDS011;14738;42.668;23.250;2024-01-10T06:47:07;4.30;;;4.00;;
5297;SDS011;14738;42.668;23.250;2024-01-10T06:49:32;3.90;;;3.37;;
5297;SDS011;14738;42.668;23.250;2024-01-10T06:51:58;4.00;;;3.70;;
5297;SDS011;14738;42.668;23.250;2024-01-10T06:54:25;6.00;;;3.77;;
5297;SDS011;14738;42.668;23.250;2024-01-10T06:56:51;4.50;;;3.93;;
5297;SDS011;14738;42.668;23.250;2024-01-10T06:59:16;3.23;;;3.03;;
5297;SDS011;14738;42.668;23.250;2024-01-10T07:04:22;3.60;;;3.30;;
5297;SDS011;14738;42.668;23.250;2024-01-10T07:06:53;3.80;;;3.60;;
5297;SDS011;14738;42.668;23.250;2024-01-10T07:09:20;5.73;;;3.03;;
5297;SDS011;14738;42.668;23.250;2024-01-10T07:11:47;2.70;;;2.60;;
5297;SDS011;14738;42.668;23.250;2024-01-10T07:14:18;3.80;;;3.23;;
5297;SDS011;14738;42.668;23.250;2024-01-10T07:16:52;4.83;;;3.30;;
5297;SDS011;14738;42.668;23.250;2024-01-10T07:19:21;3.50;;;3.20;;
5297;SDS011;14738;42.668;23.250;2024-01-10T07:21:49;2.63;;;2.40;;
5297;SDS011;14738;42.668;23.250;2024-01-10T07:24:22;3.50;;;3.20;;
5297;SDS011;14738;42.668;23.250;2024-01-10T07:26:47;3.90;;;2.87;;
5297;SDS011;14738;42.668;23.250;2024-01-10T07:29:58;3.60;;;3.30;;
5297;SDS011;14738;42.668;23.250;2024-01-10T07:32:19;2.80;;;2.60;;
5297;SDS011;14738;42.668;23.250;2024-01-10T07:35:11;2.60;;;2.47;;
5297;SDS011;14738;42.668;23.250;2024-01-10T07:37:40;4.47;;;2.80;;
5297;SDS011;14738;42.668;23.250;2024-01-10T07:40:08;3.77;;;3.00;;
5297;SDS011;14738;42.668;23.250;2024-01-10T07:42:36;3.37;;;3.07;;
5297;SDS011;14738;42.668;23.250;2024-01-10T07:45:02;5.43;;;2.77;;
5297;SDS011;14738;42.668;23.250;2024-01-10T07:47:32;3.00;;;2.80;;
5297;SDS011;14738;42.668;23.250;2024-01-10T07:50:10;4.50;;;4.13;;
5297;SDS011;14738;42.668;23.250;2024-01-10T07:52:39;5.23;;;3.70;;
5297;SDS011;14738;42.668;23.250;2024-01-10T07:55:05;5.30;;;3.20;;
5297;SDS011;14738;42.668;23.250;2024-01-10T07:57:31;4.60;;;3.57;;
5297;SDS011;14738;42.668;23.250;2024-01-10T07:59:58;3.33;;;2.97;;
5297;SDS011;14738;42.668;23.250;2024-01-10T08:02:24;2.53;;;2.43;;
5297;SDS011;14738;42.668;23.250;2024-01-10T08:04:49;2.60;;;2.50;;
5297;SDS011;14738;42.668;23.250;2024-01-10T08:07:15;2.47;;;2.27;;
5297;SDS011;14738;42.668;23.250;2024-01-10T08:09:40;2.27;;;2.17;;
5297;SDS011;14738;42.668;23.250;2024-01-10T08:12:05;2.50;;;2.30;;
5297;SDS011;14738;42.668;23.250;2024-01-10T08:14:32;3.00;;;2.80;;
5297;SDS011;14738;42.668;23.250;2024-01-10T08:16:58;3.60;;;3.30;;
5297;SDS011;14738;42.668;23.250;2024-01-10T08:19:25;5.60;;;3.17;;
5297;SDS011;14738;42.668;23.250;2024-01-10T08:21:51;4.87;;;3.40;;
5297;SDS011;14738;42.668;23.250;2024-01-10T08:24:18;3.43;;;3.10;;
5297;SDS011;14738;42.668;23.250;2024-01-10T08:26:44;3.30;;;3.10;;
5297;SDS011;14738;42.668;23.250;2024-01-10T08:29:09;5.57;;;3.30;;
5297;SDS011;14738;42.668;23.250;2024-01-10T08:31:35;3.57;;;3.07;;
5297;SDS011;14738;42.668;23.250;2024-01-10T08:34:00;3.60;;;3.30;;
5297;SDS011;14738;42.668;23.250;2024-01-10T08:36:26;3.30;;;3.00;;
5297;SDS011;14738;42.668;23.250;2024-01-10T08:38:52;4.37;;;3.47;;
5297;SDS011;14738;42.668;23.250;2024-01-10T08:41:17;4.13;;;3.73;;
5297;SDS011;14738;42.668;23.250;2024-01-10T08:43:44;5.10;;;4.57;;
5297;SDS011;14738;42.668;23.250;2024-01-10T08:46:11;8.33;;;4.50;;
5297;SDS011;14738;42.668;23.250;2024-01-10T08:48:36;4.80;;;4.30;;
5297;SDS011;14738;42.668;23.250;2024-01-10T08:51:02;4.70;;;4.30;;
5297;SDS011;14738;42.668;23.250;2024-01-10T08:53:27;4.93;;;3.57;;
5297;SDS011;14738;42.668;23.250;2024-01-10T08:55:53;6.03;;;4.33;;
5297;SDS011;14738;42.668;23.250;2024-01-10T08:58:18;6.87;;;4.63;;
5297;SDS011;14738;42.668;23.250;2024-01-10T09:00:43;6.30;;;3.93;;
5297;SDS011;14738;42.668;23.250;2024-01-10T09:03:09;6.90;;;4.70;;
5297;SDS011;14738;42.668;23.250;2024-01-10T09:05:34;6.37;;;4.53;;
5297;SDS011;14738;42.668;23.250;2024-01-10T09:07:59;6.90;;;5.00;;
5297;SDS011;14738;42.668;23.250;2024-01-10T09:10:25;6.17;;;4.87;;
5297;SDS011;14738;42.668;23.250;2024-01-10T09:12:53;6.53;;;5.10;;
5297;SDS011;14738;42.668;23.250;2024-01-10T09:15:19;7.40;;;4.87;;
5297;SDS011;14738;42.668;23.250;2024-01-10T09:17:44;5.03;;;4.53;;
5297;SDS011;14738;42.668;23.250;2024-01-10T09:20:11;7.03;;;4.40;;
5297;SDS011;14738;42.668;23.250;2024-01-10T09:22:37;7.10;;;4.40;;
5297;SDS011;14738;42.668;23.250;2024-01-10T09:25:03;5.60;;;4.93;;
5297;SDS011;14738;42.668;23.250;2024-01-10T09:27:31;5.57;;;5.00;;
5297;SDS011;14738;42.668;23.250;2024-01-10T09:29:57;6.50;;;4.90;;
5297;SDS011;14738;42.668;23.250;2024-01-10T09:32:22;6.80;;;5.00;;
5297;SDS011;14738;42.668;23.250;2024-01-10T09:34:47;5.13;;;4.50;;
5297;SDS011;14738;42.668;23.250;2024-01-10T09:37:13;4.80;;;4.40;;
5297;SDS011;14738;42.668;23.250;2024-01-10T09:39:38;6.20;;;4.70;;
5297;SDS011;14738;42.668;23.250;2024-01-10T09:42:04;4.97;;;4.43;;
5297;SDS011;14738;42.668;23.250;2024-01-10T09:44:29;5.53;;;4.40;;
5297;SDS011;14738;42.668;23.250;2024-01-10T09:46:55;4.40;;;3.60;;
5297;SDS011;14738;42.668;23.250;2024-01-10T09:49:21;4.30;;;3.97;;
5297;SDS011;14738;42.668;23.250;2024-01-10T09:51:47;4.37;;;3.97;;
5297;SDS011;14738;42.668;23.250;2024-01-10T09:54:13;7.17;;;5.70;;
5297;SDS011;14738;42.668;23.250;2024-01-10T09:56:41;4.93;;;4.40;;
5297;SDS011;14738;42.668;23.250;2024-01-10T09:59:07;4.67;;;4.37;;
5297;SDS011;14738;42.668;23.250;2024-01-10T10:01:36;7.13;;;5.47;;
5297;SDS011;14738;42.668;23.250;2024-01-10T10:04:04;6.17;;;5.37;;
5297;SDS011;14738;42.668;23.250;2024-01-10T10:06:31;6.53;;;5.17;;
5297;SDS011;14738;42.668;23.250;2024-01-10T10:08:56;8.20;;;5.67;;
5297;SDS011;14738;42.668;23.250;2024-01-10T10:11:21;6.23;;;5.50;;
5297;SDS011;14738;42.668;23.250;2024-01-10T10:13:47;6.47;;;4.83;;
5297;SDS011;14738;42.668;23.250;2024-01-10T10:16:14;7.10;;;5.50;;
5297;SDS011;14738;42.668;23.250;2024-01-10T10:18:49;5.27;;;4.77;;
5297;SDS011;14738;42.668;23.250;2024-01-10T10:21:15;7.63;;;5.80;;
5297;SDS011;14738;42.668;23.250;2024-01-10T10:23:42;8.50;;;5.40;;
5297;SDS011;14738;42.668;23.250;2024-01-10T10:26:22;5.53;;;5.03;;
5297;SDS011;14738;42.668;23.250;2024-01-10T10:28:49;6.77;;;5.67;;
5297;SDS011;14738;42.668;23.250;2024-01-10T10:31:15;8.40;;;5.90;;
5297;SDS011;14738;42.668;23.250;2024-01-10T10:33:42;9.10;;;5.57;;
5297;SDS011;14738;42.668;23.250;2024-01-10T10:36:09;5.13;;;4.67;;
5297;SDS011;14738;42.668;23.250;2024-01-10T10:38:34;4.80;;;4.40;;
5297;SDS011;14738;42.668;23.250;2024-01-10T10:41:02;5.40;;;4.60;;
5297;SDS011;14738;42.668;23.250;2024-01-10T10:43:31;4.57;;;4.17;;
5297;SDS011;14738;42.668;23.250;2024-01-10T10:46:00;9.23;;;5.83;;
5297;SDS011;14738;42.668;23.250;2024-01-10T10:48:26;7.50;;;5.20;;
5297;SDS011;14738;42.668;23.250;2024-01-10T10:53:25;5.70;;;5.20;;
5297;SDS011;14738;42.668;23.250;2024-01-10T10:55:52;7.30;;;6.10;;
5297;SDS011;14738;42.668;23.250;2024-01-10T10:58:18;8.97;;;5.70;;
5297;SDS011;14738;42.668;23.250;2024-01-10T11:00:44;8.27;;;5.97;;
5297;SDS011;14738;42.668;23.250;2024-01-10T11:03:12;9.00;;;6.50;;
5297;SDS011;14738;42.668;23.250;2024-01-10T11:05:40;9.50;;;6.00;;
5297;SDS011;14738;42.668;23.250;2024-01-10T11:08:07;8.87;;;5.43;;
5297;SDS011;14738;42.668;23.250;2024-01-10T11:10:36;12.10;;;8.43;;
5297;SDS011;14738;42.668;23.250;2024-01-10T11:24:12;9.27;;;6.70;;
5297;SDS011;14738;42.668;23.250;2024-01-10T11:26:38;12.87;;;7.23;;
5297;SDS011;14738;42.668;23.250;2024-01-10T11:29:04;8.73;;;7.80;;
5297;SDS011;14738;42.668;23.250;2024-01-10T11:31:32;10.70;;;7.10;;
5297;SDS011;14738;42.668;23.250;2024-01-10T11:34:01;8.20;;;6.93;;
5297;SDS011;14738;42.668;23.250;2024-01-10T11:36:27;8.67;;;6.77;;
5297;SDS011;14738;42.668;23.250;2024-01-10T11:46:49;9.73;;;7.20;;
5297;SDS011;14738;42.668;23.250;2024-01-10T11:49:20;10.80;;;7.37;;
5297;SDS011;14738;42.668;23.250;2024-01-10T11:51:56;16.27;;;8.13;;
5297;SDS011;14738;42.668;23.250;2024-01-10T11:57:10;8.17;;;6.53;;
5297;SDS011;14738;42.668;23.250;2024-01-10T11:59:44;9.90;;;7.60;;
5297;SDS011;14738;42.668;23.250;2024-01-10T12:02:13;8.13;;;7.30;;
5297;SDS011;14738;42.668;23.250;2024-01-10T12:04:39;8.43;;;7.60;;
5297;SDS011;14738;42.668;23.250;2024-01-10T12:07:06;9.30;;;6.73;;
5297;SDS011;14738;42.668;23.250;2024-01-10T12:09:33;10.93;;;7.40;;
5297;SDS011;14738;42.668;23.250;2024-01-10T12:11:59;10.77;;;7.70;;
5297;SDS011;14738;42.668;23.250;2024-01-10T12:14:25;16.73;;;8.70;;
5297;SDS011;14738;42.668;23.250;2024-01-10T12:16:51;11.73;;;7.53;;
5297;SDS011;14738;42.668;23.250;2024-01-10T12:19:17;9.63;;;7.70;;
5297;SDS011;14738;42.668;23.250;2024-01-10T12:21:43;7.90;;;7.13;;
5297;SDS011;14738;42.668;23.250;2024-01-10T12:24:09;9.10;;;7.70;;
5297;SDS011;14738;42.668;23.250;2024-01-10T12:26:34;9.30;;;7.77;;
5297;SDS011;14738;42.668;23.250;2024-01-10T12:29:01;11.73;;;8.67;;
5297;SDS011;14738;42.668;23.250;2024-01-10T12:31:31;11.80;;;8.40;;
5297;SDS011;14738;42.668;23.250;2024-01-10T12:33:57;12.83;;;9.30;;
5297;SDS011;14738;42.668;23.250;2024-01-10T12:36:25;11.10;;;8.67;;
5297;SDS011;14738;42.668;23.250;2024-01-10T12:38:51;13.23;;;8.80;;
5297;SDS011;14738;42.668;23.250;2024-01-10T12:41:17;10.87;;;8.60;;
5297;SDS011;14738;42.668;23.250;2024-01-10T12:43:48;13.00;;;9.30;;
5297;SDS011;14738;42.668;23.250;2024-01-10T12:46:15;13.17;;;9.50;;
5297;SDS011;14738;42.668;23.250;2024-01-10T12:48:41;15.83;;;9.40;;
5297;SDS011;14738;42.668;23.250;2024-01-10T12:51:10;13.63;;;9.53;;
5297;SDS011;14738;42.668;23.250;2024-01-10T12:53:38;10.03;;;8.63;;
5297;SDS011;14738;42.668;23.250;2024-01-10T12:56:04;11.13;;;8.37;;
5297;SDS011;14738;42.668;23.250;2024-01-10T12:58:31;8.83;;;7.63;;
5297;SDS011;14738;42.668;23.250;2024-01-10T13:00:57;13.53;;;7.60;;
5297;SDS011;14738;42.668;23.250;2024-01-10T13:03:23;10.13;;;7.23;;
5297;SDS011;14738;42.668;23.250;2024-01-10T13:05:49;9.53;;;7.30;;
5297;SDS011;14738;42.668;23.250;2024-01-10T13:08:15;8.70;;;7.20;;
5297;SDS011;14738;42.668;23.250;2024-01-10T13:10:41;13.00;;;6.50;;
5297;SDS011;14738;42.668;23.250;2024-01-10T13:13:06;13.50;;;8.23;;
5297;SDS011;14738;42.668;23.250;2024-01-10T13:15:32;12.40;;;7.50;;
5297;SDS011;14738;42.668;23.250;2024-01-10T13:17:57;10.40;;;7.77;;
5297;SDS011;14738;42.668;23.250;2024-01-10T13:20:23;12.00;;;7.50;;
5297;SDS011;14738;42.668;23.250;2024-01-10T13:22:52;12.90;;;7.40;;
5297;SDS011;14738;42.668;23.250;2024-01-10T13:25:18;10.57;;;7.53;;
5297;SDS011;14738;42.668;23.250;2024-01-10T13:27:48;13.70;;;8.40;;
5297;SDS011;14738;42.668;23.250;2024-01-10T13:30:14;10.23;;;8.43;;
5297;SDS011;14738;42.668;23.250;2024-01-10T13:32:40;10.97;;;7.80;;
5297;SDS011;14738;42.668;23.250;2024-01-10T13:35:05;14.27;;;9.60;;
5297;SDS011;14738;42.668;23.250;2024-01-10T13:37:31;12.63;;;8.70;;
5297;SDS011;14738;42.668;23.250;2024-01-10T13:39:57;13.33;;;8.43;;
5297;SDS011;14738;42.668;23.250;2024-01-10T13:42:23;12.73;;;9.00;;
5297;SDS011;14738;42.668;23.250;2024-01-10T13:44:49;10.67;;;8.83;;
5297;SDS011;14738;42.668;23.250;2024-01-10T13:47:15;12.17;;;8.03;;
5297;SDS011;14738;42.668;23.250;2024-01-10T13:49:42;12.97;;;10.00;;
5297;SDS011;14738;42.668;23.250;2024-01-10T13:52:08;11.43;;;9.00;;
5297;SDS011;14738;42.668;23.250;2024-01-10T13:54:33;10.43;;;8.73;;
5297;SDS011;14738;42.668;23.250;2024-01-10T13:56:59;15.20;;;9.30;;
5297;SDS011;14738;42.668;23.250;2024-01-10T13:59:24;14.33;;;10.30;;
5297;SDS011;14738;42.668;23.250;2024-01-10T14:01:49;16.50;;;10.70;;
5297;SDS011;14738;42.668;23.250;2024-01-10T14:04:15;14.60;;;10.00;;
5297;SDS011;14738;42.668;23.250;2024-01-10T14:06:40;16.43;;;10.13;;
5297;SDS011;14738;42.668;23.250;2024-01-10T14:09:05;14.90;;;10.60;;
5297;SDS011;14738;42.668;23.250;2024-01-10T14:11:32;15.70;;;10.70;;
5297;SDS011;14738;42.668;23.250;2024-01-10T14:13:59;14.17;;;9.67;;
5297;SDS011;14738;42.668;23.250;2024-01-10T14:16:25;16.83;;;11.87;;
5297;SDS011;14738;42.668;23.250;2024-01-10T14:18:50;19.00;;;11.70;;
5297;SDS011;14738;42.668;23.250;2024-01-10T14:21:16;19.80;;;12.67;;
5297;SDS011;14738;42.668;23.250;2024-01-10T14:23:41;17.90;;;12.30;;
5297;SDS011;14738;42.668;23.250;2024-01-10T14:26:06;28.47;;;14.70;;
5297;SDS011;14738;42.668;23.250;2024-01-10T14:28:32;27.63;;;15.27;;
5297;SDS011;14738;42.668;23.250;2024-01-10T14:30:58;20.87;;;12.63;;
5297;SDS011;14738;42.668;23.250;2024-01-10T14:33:25;19.20;;;12.03;;
5297;SDS011;14738;42.668;23.250;2024-01-10T14:35:51;20.77;;;13.03;;
5297;SDS011;14738;42.668;23.250;2024-01-10T14:38:16;24.90;;;13.37;;
5297;SDS011;14738;42.668;23.250;2024-01-10T14:40:41;19.57;;;14.30;;
5297;SDS011;14738;42.668;23.250;2024-01-10T14:43:07;18.70;;;12.63;;
5297;SDS011;14738;42.668;23.250;2024-01-10T14:45:32;18.93;;;13.30;;
5297;SDS011;14738;42.668;23.250;2024-01-10T14:47:57;18.80;;;13.30;;
5297;SDS011;14738;42.668;23.250;2024-01-10T14:50:23;24.10;;;16.97;;
5297;SDS011;14738;42.668;23.250;2024-01-10T14:52:49;21.50;;;15.10;;
5297;SDS011;14738;42.668;23.250;2024-01-10T14:55:15;25.33;;;18.07;;
5297;SDS011;14738;42.668;23.250;2024-01-10T14:57:41;41.10;;;24.70;;
5297;SDS011;14738;42.668;23.250;2024-01-10T15:00:06;46.87;;;28.63;;
5297;SDS011;14738;42.668;23.250;2024-01-10T15:02:32;47.90;;;28.90;;
5297;SDS011;14738;42.668;23.250;2024-01-10T15:04:58;46.40;;;29.83;;
5297;SDS011;14738;42.668;23.250;2024-01-10T15:07:23;59.73;;;36.60;;
5297;SDS011;14738;42.668;23.250;2024-01-10T15:09:49;57.17;;;32.80;;
5297;SDS011;14738;42.668;23.250;2024-01-10T15:12:14;72.00;;;37.30;;
5297;SDS011;14738;42.668;23.250;2024-01-10T15:14:39;49.60;;;30.77;;
5297;SDS011;14738;42.668;23.250;2024-01-10T15:17:05;54.77;;;30.63;;
5297;SDS011;14738;42.668;23.250;2024-01-10T15:19:33;46.13;;;31.20;;
5297;SDS011;14738;42.668;23.250;2024-01-10T15:22:00;51.50;;;31.57;;
5297;SDS011;14738;42.668;23.250;2024-01-10T15:24:27;57.03;;;33.37;;
5297;SDS011;14738;42.668;23.250;2024-01-10T15:26:53;60.27;;;33.60;;